Time;durP1;ratioP1;P1;durP2;ratioP2;P2;SDS_P1;SDS_P2;PMS_P1;PMS_P2;Temp;Humidity;BMP_temperature;BMP_pressure;BME280_temperature;BME280_humidity;BME280_pressure;Samples;Min_cycle;Max_cycle;Signal;HPM_P1;HPM_P2
2023/08/28 00:01:39;;;;;;;;;5.00;5.00;;;;;25.35;57.04;100114.77;110019;1260;19081;-37
2023/08/28 00:04:06;;;;;;;;;7.00;7.00;;;;;25.34;57.10;100116.99;109935;1266;18597;-38
2023/08/28 00:06:34;;;;;;;;;6.00;5.00;;;;;25.35;57.26;100119.05;110091;1266;19806;-36
2023/08/28 00:09:01;;;;;;;;;6.00;5.00;;;;;25.34;57.08;100120.06;110052;1251;22044;-37
2023/08/28 00:11:28;;;;;;;;;4.00;4.00;;;;;25.35;57.11;100126.13;110061;1266;18602;-38
2023/08/28 00:13:56;;;;;;;;;5.00;5.00;;;;;25.35;57.06;100134.12;110046;1266;18186;-37
2023/08/28 00:16:23;;;;;;;;;6.00;6.00;;;;;25.35;57.06;100135.22;110046;1253;19424;-37
2023/08/28 00:18:50;;;;;;;;;5.00;5.00;;;;;25.34;57.07;100125.00;110021;1252;19996;-38
2023/08/28 00:21:18;;;;;;;;;6.00;4.00;;;;;25.34;57.03;100117.71;110047;1266;18183;-38
2023/08/28 00:23:45;;;;;;;;;6.67;6.00;;;;;25.34;56.98;100106.25;110042;1253;19428;-38
2023/08/28 00:26:12;;;;;;;;;5.50;5.50;;;;;25.35;56.97;100102.55;110024;1266;19870;-37
2023/08/28 00:28:40;;;;;;;;;6.00;5.50;;;;;25.36;56.97;100101.74;110037;1266;19661;-38
2023/08/28 00:31:07;;;;;;;;;6.00;6.00;;;;;25.37;56.90;100096.30;110028;1266;18186;-38
2023/08/28 00:33:35;;;;;;;;;5.00;5.00;;;;;25.37;56.82;100100.36;110038;1253;20005;-37
2023/08/28 00:36:02;;;;;;;;;3.00;3.00;;;;;25.35;57.02;100101.45;110041;1266;20962;-37
2023/08/28 00:38:29;;;;;;;;;6.00;5.67;;;;;25.36;56.87;100106.23;110003;1253;19403;-37
2023/08/28 00:40:57;;;;;;;;;5.00;5.00;;;;;25.36;56.74;100099.55;110041;1253;21205;-37
2023/08/28 00:43:24;;;;;;;;;5.00;5.00;;;;;25.36;56.67;100098.91;109950;1254;19696;-37
2023/08/28 00:45:51;;;;;;;;;6.00;6.00;;;;;25.35;56.89;100098.81;109952;1259;19222;-38
2023/08/28 00:48:19;;;;;;;;;6.00;6.00;;;;;25.35;56.92;100094.75;110091;1260;19853;-37
2023/08/28 00:50:47;;;;;;;;;5.00;5.00;;;;;25.36;57.00;100099.06;110052;1251;19730;-37
2023/08/28 00:53:14;;;;;;;;;6.00;6.00;;;;;25.37;56.76;100107.11;110020;1265;19361;-38
2023/08/28 00:55:42;;;;;;;;;6.50;6.00;;;;;25.37;56.87;100104.30;110042;1253;20147;-38
2023/08/28 00:58:09;;;;;;;;;4.00;4.00;;;;;25.37;56.54;100106.27;110058;1261;19496;-39
2023/08/28 01:00:37;;;;;;;;;6.00;6.00;;;;;25.36;56.69;100105.48;110050;1253;19363;-39
2023/08/28 01:03:04;;;;;;;;;6.00;5.50;;;;;25.36;56.79;100106.20;110030;1266;19239;-38
2023/08/28 01:05:32;;;;;;;;;5.00;5.00;;;;;25.35;56.69;100112.03;110034;1262;19782;-38
2023/08/28 01:07:59;;;;;;;;;6.00;6.00;;;;;25.36;56.77;100121.00;110043;1260;19224;-37
2023/08/28 01:10:26;;;;;;;;;5.00;5.00;;;;;25.38;56.56;100135.43;110058;1266;18612;-37
2023/08/28 01:12:54;;;;;;;;;4.50;4.50;;;;;25.37;56.72;100138.01;110051;1266;18957;-39
2023/08/28 01:15:21;;;;;;;;;4.00;4.00;;;;;25.36;56.53;100135.27;109892;1251;165726;-39
2023/08/28 01:17:48;;;;;;;;;5.00;5.00;;;;;25.35;56.75;100131.45;110019;1251;21266;-38
2023/08/28 01:20:16;;;;;;;;;6.00;6.00;;;;;25.35;56.67;100133.73;110053;1260;19511;-38
2023/08/28 01:22:43;;;;;;;;;3.00;3.00;;;;;25.35;56.51;100138.07;110018;1251;19525;-37
2023/08/28 01:25:10;;;;;;;;;5.00;5.00;;;;;25.37;56.43;100145.98;110022;1266;18594;-38
2023/08/28 01:27:38;;;;;;;;;6.00;6.00;;;;;25.36;56.71;100151.16;110048;1251;19192;-39
2023/08/28 01:30:05;;;;;;;;;5.67;5.00;;;;;25.34;56.33;100147.80;110024;1253;19408;-38
2023/08/28 01:32:32;;;;;;;;;5.00;5.00;;;;;25.36;56.55;100152.73;110039;1253;19953;-38
2023/08/28 01:35:00;;;;;;;;;5.00;5.00;;;;;25.36;56.54;100159.80;110004;1253;19645;-37
2023/08/28 01:37:27;;;;;;;;;6.50;5.00;;;;;25.36;56.46;100164.32;110057;1259;18991;-37
2023/08/28 01:39:54;;;;;;;;;4.00;4.00;;;;;25.35;56.35;100169.45;110030;1253;19990;-39
2023/08/28 01:42:22;;;;;;;;;5.00;5.00;;;;;25.35;56.41;100173.73;110068;1266;19203;-38
2023/08/28 01:44:54;;;;;;;;;4.00;4.00;;;;;25.36;56.35;100168.96;110037;1253;20373;-38
2023/08/28 01:47:21;;;;;;;;;6.00;6.00;;;;;25.38;56.23;100163.88;109929;1266;18570;-37
2023/08/28 01:49:49;;;;;;;;;4.33;4.33;;;;;25.37;56.33;100158.64;110060;1251;19846;-37
2023/08/28 01:52:16;;;;;;;;;6.00;6.00;;;;;25.35;56.20;100162.25;110088;1266;17942;-36
2023/08/28 01:54:43;;;;;;;;;4.50;4.50;;;;;25.35;56.20;100155.77;110059;1266;18602;-38
2023/08/28 01:57:11;;;;;;;;;6.00;6.00;;;;;25.37;55.98;100154.36;110036;1266;18191;-38
2023/08/28 01:59:38;;;;;;;;;5.67;5.33;;;;;25.37;55.99;100155.17;110052;1260;22196;-38
2023/08/28 02:02:05;;;;;;;;;6.00;5.00;;;;;25.38;56.01;100152.75;110016;1253;18455;-38
2023/08/28 02:04:32;;;;;;;;;5.00;5.00;;;;;25.38;55.88;100154.17;110046;1253;21174;-39
2023/08/28 02:07:00;;;;;;;;;6.00;6.00;;;;;25.40;55.90;100158.17;110048;1252;19322;-38
2023/08/28 02:09:27;;;;;;;;;5.50;5.00;;;;;25.38;55.84;100157.39;109903;1259;19810;-37
2023/08/28 02:11:54;;;;;;;;;5.00;5.00;;;;;25.38;55.72;100154.88;110035;1266;18236;-38
2023/08/28 02:14:22;;;;;;;;;6.00;6.00;;;;;25.36;55.83;100149.13;110054;1253;19366;-38
2023/08/28 02:16:49;;;;;;;;;4.50;4.50;;;;;25.36;55.80;100151.32;110052;1251;19994;-38
2023/08/28 02:19:16;;;;;;;;;4.00;4.00;;;;;25.36;55.70;100152.13;110028;1251;21503;-38
2023/08/28 02:21:44;;;;;;;;;6.00;4.00;;;;;25.36;55.84;100158.33;110033;1253;19307;-39
2023/08/28 02:24:11;;;;;;;;;5.67;5.00;;;;;25.37;55.80;100168.40;110004;1251;18601;-38
2023/08/28 02:26:38;;;;;;;;;4.00;4.00;;;;;25.38;55.55;100171.95;110035;1266;21985;-38
2023/08/28 02:29:05;;;;;;;;;3.00;3.00;;;;;25.38;55.74;100176.91;110077;1266;19215;-38
2023/08/28 02:31:33;;;;;;;;;6.00;6.00;;;;;25.36;55.57;100186.67;110049;1266;19922;-38
2023/08/28 02:34:00;;;;;;;;;5.00;5.00;;;;;25.37;55.56;100187.10;110020;1251;19716;-38
2023/08/28 02:36:27;;;;;;;;;5.00;5.00;;;;;25.35;55.60;100184.80;110036;1266;21512;-38
2023/08/28 02:38:55;;;;;;;;;5.00;5.00;;;;;25.35;55.65;100181.05;110039;1253;20098;-39
2023/08/28 02:41:22;;;;;;;;;7.00;7.00;;;;;25.33;55.33;100170.53;110045;1251;19665;-38
2023/08/28 02:43:49;;;;;;;;;4.00;4.00;;;;;25.35;55.32;100168.02;110028;1251;22564;-38
2023/08/28 02:46:17;;;;;;;;;5.00;5.00;;;;;25.33;55.28;100170.09;110063;1266;18527;-38
2023/08/28 02:48:44;;;;;;;;;7.00;6.00;;;;;25.34;55.13;100181.80;110046;1266;18193;-38
2023/08/28 02:51:11;;;;;;;;;5.00;5.00;;;;;25.36;55.18;100194.32;110061;1253;19346;-39
2023/08/28 02:53:39;;;;;;;;;5.00;5.00;;;;;25.35;55.08;100186.86;110049;1253;19967;-38
2023/08/28 02:56:06;;;;;;;;;3.00;3.00;;;;;25.36;55.10;100176.38;110027;1266;19565;-38
2023/08/28 02:58:33;;;;;;;;;5.00;5.00;;;;;25.36;54.69;100177.03;110049;1266;17878;-38
2023/08/28 03:01:01;;;;;;;;;5.00;5.00;;;;;25.34;54.75;100172.21;110039;1266;18575;-38
2023/08/28 03:03:28;;;;;;;;;5.00;5.00;;;;;25.33;54.63;100185.27;110024;1253;19605;-38
2023/08/28 03:05:57;;;;;;;;;5.00;5.00;;;;;25.35;54.56;100198.12;110032;1251;20666;-38
2023/08/28 03:08:24;;;;;;;;;5.00;5.00;;;;;25.35;54.60;100197.80;110026;1266;19925;-39
2023/08/28 03:10:52;;;;;;;;;6.00;6.00;;;;;25.35;54.81;100195.61;110035;1253;19711;-38
2023/08/28 03:13:19;;;;;;;;;5.50;5.00;;;;;25.34;54.48;100197.92;110031;1253;22618;-38
2023/08/28 03:15:46;;;;;;;;;5.50;5.50;;;;;25.36;54.55;100198.73;110062;1260;19836;-37
2023/08/28 03:18:13;;;;;;;;;5.33;5.00;;;;;25.38;54.15;100213.17;110040;1251;21680;-38
2023/08/28 03:20:41;;;;;;;;;5.00;5.00;;;;;25.35;54.27;100213.90;110037;1250;17957;-39
2023/08/28 03:23:09;;;;;;;;;6.00;4.33;;;;;25.33;54.40;100218.14;110036;1251;22081;-38
2023/08/28 03:25:36;;;;;;;;;6.00;6.00;;;;;25.32;54.37;100220.84;110028;1266;18261;-39
2023/08/28 03:28:07;;;;;;;;;6.00;6.00;;;;;25.32;54.37;100215.91;110027;1253;19346;-38
2023/08/28 03:30:34;;;;;;;;;6.00;6.00;;;;;25.32;54.17;100210.65;110008;1253;19979;-37
2023/08/28 03:33:01;;;;;;;;;7.00;7.00;;;;;25.29;54.30;100188.89;109934;1266;20107;-36
2023/08/28 03:35:29;;;;;;;;;5.33;5.00;;;;;25.28;54.27;100175.92;110040;1251;19995;-36
2023/08/28 03:37:56;;;;;;;;;6.00;6.00;;;;;25.29;54.12;100181.93;110084;1266;18606;-37
2023/08/28 03:40:24;;;;;;;;;6.00;6.00;;;;;25.30;54.25;100182.90;110064;1251;20243;-37
2023/08/28 03:42:51;;;;;;;;;6.00;6.00;;;;;25.29;54.00;100177.00;110070;1266;17824;-38
2023/08/28 03:45:18;;;;;;;;;6.00;6.00;;;;;25.30;53.88;100175.38;110089;1259;19804;-37
2023/08/28 03:47:46;;;;;;;;;7.00;6.00;;;;;25.31;53.96;100179.65;110088;1253;19703;-36
2023/08/28 03:50:13;;;;;;;;;6.00;6.00;;;;;25.30;53.72;100193.65;110046;1251;20578;-37
2023/08/28 03:52:40;;;;;;;;;7.00;6.50;;;;;25.30;53.60;100207.90;110035;1253;19991;-38
2023/08/28 03:55:08;;;;;;;;;6.00;6.00;;;;;25.29;53.57;100205.27;110059;1251;19660;-38
2023/08/28 03:57:35;;;;;;;;;7.00;7.00;;;;;25.30;53.61;100201.38;110032;1266;17922;-39
2023/08/28 04:00:05;;;;;;;;;6.67;6.67;;;;;25.30;53.63;100202.90;110037;1259;19933;-39
2023/08/28 04:02:34;;;;;;;;;8.00;7.00;;;;;25.32;53.58;100223.80;110046;1253;19705;-38
2023/08/28 04:05:04;;;;;;;;;5.00;5.00;;;;;25.30;53.51;100223.35;110055;1253;17875;-38
2023/08/28 04:07:32;;;;;;;;;7.00;6.50;;;;;25.31;53.53;100231.35;110017;1251;19957;-39
2023/08/28 04:09:59;;;;;;;;;5.00;5.00;;;;;25.32;53.42;100233.45;110061;1260;19599;-37
2023/08/28 04:12:27;;;;;;;;;6.33;6.00;;;;;25.33;53.37;100238.27;109989;1251;20526;-37
2023/08/28 04:14:54;;;;;;;;;5.50;5.50;;;;;25.33;53.09;100235.55;109985;1266;19968;-37
2023/08/28 04:17:21;;;;;;;;;5.00;5.00;;;;;25.33;52.98;100231.50;109918;1253;18226;-37
2023/08/28 04:19:49;;;;;;;;;6.50;6.00;;;;;25.34;53.04;100231.77;109926;1251;21544;-37
2023/08/28 04:22:16;;;;;;;;;6.33;6.33;;;;;25.33;53.11;100220.52;109992;1266;18693;-37
2023/08/28 04:24:43;;;;;;;;;6.00;5.50;;;;;25.32;53.14;100219.58;109935;1253;19798;-37
2023/08/28 04:27:11;;;;;;;;;5.00;5.00;;;;;25.32;53.07;100224.90;110064;1266;17931;-38
2023/08/28 04:29:38;;;;;;;;;5.00;5.00;;;;;25.33;52.99;100229.27;110017;1253;21859;-39
2023/08/28 04:32:05;;;;;;;;;5.33;5.33;;;;;25.31;52.90;100238.74;110031;1253;19624;-38
2023/08/28 04:34:33;;;;;;;;;6.00;6.00;;;;;25.31;52.74;100250.16;110038;1259;19239;-38
2023/08/28 04:37:00;;;;;;;;;5.00;5.00;;;;;25.34;52.64;100257.08;110005;1252;20179;-38
2023/08/28 04:39:27;;;;;;;;;6.00;6.00;;;;;25.31;52.73;100261.70;110024;1251;19612;-38
2023/08/28 04:41:55;;;;;;;;;6.00;5.50;;;;;25.28;52.72;100267.42;110063;1266;19286;-37
2023/08/28 04:44:22;;;;;;;;;6.00;6.00;;;;;25.29;52.63;100268.84;110035;1259;19874;-37
2023/08/28 04:46:49;;;;;;;;;7.00;6.00;;;;;25.29;52.73;100269.33;110034;1266;18270;-38
2023/08/28 04:49:17;;;;;;;;;5.33;5.33;;;;;25.30;52.49;100269.36;109942;1253;19342;-38
2023/08/28 04:51:44;;;;;;;;;5.50;5.50;;;;;25.30;52.45;100275.34;109906;1251;20182;-39
2023/08/28 04:54:11;;;;;;;;;7.00;6.33;;;;;25.29;52.50;100270.91;109913;1251;20757;-39
2023/08/28 04:56:38;;;;;;;;;6.00;6.00;;;;;25.30;52.37;100270.56;109923;1259;17826;-39
2023/08/28 04:59:06;;;;;;;;;6.00;6.00;;;;;25.29;52.24;100272.89;109975;1266;19820;-38
2023/08/28 05:01:33;;;;;;;;;6.00;6.00;;;;;25.28;52.38;100276.97;110018;1252;19620;-38
2023/08/28 05:04:01;;;;;;;;;6.00;6.00;;;;;25.33;52.26;100287.77;110041;1251;18094;-39
2023/08/28 05:06:28;;;;;;;;;5.50;5.50;;;;;25.32;52.11;100296.67;110031;1253;21158;-37
2023/08/28 05:08:55;;;;;;;;;7.00;6.00;;;;;25.28;52.34;100288.77;110038;1253;19655;-38
2023/08/28 05:11:23;;;;;;;;;6.00;6.00;;;;;25.29;51.99;100293.84;110011;1251;19340;-37
2023/08/28 05:13:50;;;;;;;;;6.67;6.00;;;;;25.30;51.90;100290.79;110095;1261;19891;-38
2023/08/28 05:16:18;;;;;;;;;11.00;11.00;;;;;25.33;51.94;100283.48;110058;1266;19673;-38
2023/08/28 05:18:45;;;;;;;;;12.00;12.00;;;;;25.34;51.24;100277.20;109932;1251;18597;-37
2023/08/28 05:21:12;;;;;;;;;16.50;16.00;;;;;25.26;50.72;100282.34;110031;1251;19976;-37
2023/08/28 05:23:40;;;;;;;;;16.00;15.00;;;;;25.14;50.92;100281.05;110039;1253;21964;-37
2023/08/28 05:26:07;;;;;;;;;19.00;17.00;;;;;25.06;50.92;100286.19;109944;1266;18177;-37
2023/08/28 05:28:37;;;;;;;;;20.00;19.00;;;;;24.96;51.13;100280.55;110048;1261;19925;-37
2023/08/28 05:31:04;;;;;;;;;22.00;20.00;;;;;24.81;51.79;100276.54;110031;1253;20045;-37
2023/08/28 05:33:32;;;;;;;;;90.50;65.00;;;;;24.90;51.67;100272.10;110029;1251;19584;-39
2023/08/28 05:35:59;;;;;;;;;198.00;142.67;;;;;24.93;51.46;100271.42;110039;1263;18555;-38
2023/08/28 05:38:26;;;;;;;;;210.00;149.00;;;;;24.85;51.50;100274.25;110012;1253;20110;-39
2023/08/28 05:40:54;;;;;;;;;230.67;174.33;;;;;24.75;51.49;100276.77;109896;1253;21156;-36
2023/08/28 05:43:21;;;;;;;;;170.00;127.50;;;;;24.72;51.46;100279.35;110029;1266;18453;-37
2023/08/28 05:45:48;;;;;;;;;95.00;70.00;;;;;24.71;51.57;100282.95;110035;1266;18922;-37
2023/08/28 05:48:16;;;;;;;;;85.00;59.00;;;;;24.68;51.70;100285.14;110038;1251;19584;-38
2023/08/28 05:50:43;;;;;;;;;66.50;46.00;;;;;24.60;51.75;100289.61;110007;1258;19231;-37
2023/08/28 05:53:10;;;;;;;;;37.00;35.00;;;;;24.49;51.78;100294.27;110023;1253;20062;-37
2023/08/28 05:55:38;;;;;;;;;23.67;23.00;;;;;24.41;52.00;100298.27;110030;1253;19627;-37
2023/08/28 05:58:05;;;;;;;;;23.33;22.00;;;;;24.39;52.16;100298.31;110067;1253;19978;-39
2023/08/28 06:00:33;;;;;;;;;23.33;19.33;;;;;24.30;52.40;100300.47;110022;1266;19035;-38
2023/08/28 06:03:00;;;;;;;;;25.50;25.00;;;;;24.22;52.56;100299.62;110024;1251;19604;-37
2023/08/28 06:05:27;;;;;;;;;26.50;24.00;;;;;23.93;53.26;100302.35;110078;1251;21740;-38
2023/08/28 06:07:55;;;;;;;;;33.50;30.50;;;;;23.54;54.23;100309.36;110056;1253;20106;-37
2023/08/28 06:10:22;;;;;;;;;23.00;19.00;;;;;23.59;54.44;100309.85;110060;1260;19937;-38
2023/08/28 06:12:50;;;;;;;;;21.00;18.00;;;;;23.93;53.71;100308.96;110045;1259;20819;-38
2023/08/28 06:15:18;;;;;;;;;21.00;19.00;;;;;24.13;53.00;100311.83;110004;1253;20054;-38
2023/08/28 06:17:46;;;;;;;;;18.00;18.00;;;;;24.24;52.78;100312.77;110019;1253;20398;-38
2023/08/28 06:20:13;;;;;;;;;18.00;17.00;;;;;24.29;52.93;100311.97;110023;1266;20687;-38
2023/08/28 06:22:40;;;;;;;;;16.00;14.00;;;;;24.34;52.59;100308.42;110037;1260;18682;-37
2023/08/28 06:25:08;;;;;;;;;15.00;15.00;;;;;24.36;52.76;100306.81;110029;1266;18683;-37
2023/08/28 06:27:35;;;;;;;;;18.00;18.00;;;;;24.39;52.59;100304.56;110009;1266;19346;-38
2023/08/28 06:30:03;;;;;;;;;20.00;18.00;;;;;24.39;52.73;100300.56;110009;1253;20024;-38
2023/08/28 06:32:31;;;;;;;;;17.00;16.00;;;;;24.43;52.44;100297.52;110023;1251;20120;-38
2023/08/28 06:34:58;;;;;;;;;18.00;16.00;;;;;24.41;52.53;100302.52;110019;1266;21936;-38
2023/08/28 06:37:26;;;;;;;;;19.00;15.00;;;;;24.37;52.76;100305.73;110019;1266;19997;-38
2023/08/28 06:39:53;;;;;;;;;18.00;16.00;;;;;24.45;52.34;100304.70;110010;1251;21406;-38
2023/08/28 06:42:20;;;;;;;;;15.00;14.00;;;;;24.39;52.50;100307.23;110022;1253;20806;-38
2023/08/28 06:44:48;;;;;;;;;15.00;14.00;;;;;24.38;52.49;100314.98;110036;1253;20121;-38
2023/08/28 06:47:15;;;;;;;;;18.00;16.00;;;;;24.41;52.31;100315.95;109948;1260;20129;-38
2023/08/28 06:49:43;;;;;;;;;18.00;15.00;;;;;24.43;52.12;100316.20;110002;1266;20684;-37
2023/08/28 06:52:10;;;;;;;;;15.00;15.00;;;;;24.45;52.08;100317.79;109986;1266;19978;-38
2023/08/28 06:54:37;;;;;;;;;15.00;14.00;;;;;24.37;52.63;100318.67;110042;1253;21996;-38
2023/08/28 06:57:05;;;;;;;;;19.00;16.00;;;;;24.37;52.41;100317.39;110026;1266;19215;-37
2023/08/28 06:59:32;;;;;;;;;17.50;14.50;;;;;24.42;52.26;100319.64;110040;1266;18760;-37
2023/08/28 07:01:59;;;;;;;;;24.00;22.00;;;;;24.20;52.76;100317.93;109989;1266;18773;-38
2023/08/28 07:04:27;;;;;;;;;22.00;20.00;;;;;23.66;54.37;100322.98;109904;1259;20824;-38
2023/08/28 07:06:54;;;;;;;;;22.50;22.50;;;;;23.37;55.25;100329.16;110092;1266;18754;-39
2023/08/28 07:09:21;;;;;;;;;24.00;21.00;;;;;23.09;56.15;100328.13;109928;1251;22751;-37
2023/08/28 07:11:48;;;;;;;;;24.00;21.50;;;;;22.98;56.47;100328.72;109931;1253;20731;-36
2023/08/28 07:14:16;;;;;;;;;20.50;20.50;;;;;22.96;56.62;100338.48;110012;1266;18635;-36
2023/08/28 07:16:43;;;;;;;;;21.50;20.50;;;;;22.94;56.60;100343.09;110068;1266;18795;-38
2023/08/28 07:19:10;;;;;;;;;25.00;24.00;;;;;22.88;56.83;100340.49;110020;1266;19330;-38
2023/08/28 07:21:38;;;;;;;;;20.33;20.00;;;;;22.75;57.00;100344.36;110017;1266;22079;-38
2023/08/28 07:24:05;;;;;;;;;23.50;22.50;;;;;22.75;57.22;100347.20;110029;1266;22191;-38
2023/08/28 07:26:32;;;;;;;;;27.00;24.00;;;;;22.72;57.44;100353.62;110028;1259;20737;-37
2023/08/28 07:28:59;;;;;;;;;27.00;23.00;;;;;22.68;57.83;100355.04;110038;1266;20831;-38
2023/08/28 07:31:27;;;;;;;;;27.50;24.00;;;;;22.69;57.33;100356.98;110042;1266;18900;-37
2023/08/28 07:33:54;;;;;;;;;31.00;24.00;;;;;22.63;57.59;100359.91;110043;1266;19511;-38
2023/08/28 07:36:23;;;;;;;;;30.00;28.00;;;;;22.49;57.85;100357.34;110058;1251;18598;-37
2023/08/28 07:38:50;;;;;;;;;29.00;25.00;;;;;22.54;57.82;100352.20;110052;1253;20215;-38
2023/08/28 07:41:19;;;;;;;;;30.50;27.00;;;;;22.63;57.87;100351.98;110039;1251;22674;-37
2023/08/28 07:43:47;;;;;;;;;29.00;26.50;;;;;22.66;57.88;100354.73;110022;1253;20163;-38
2023/08/28 07:46:14;;;;;;;;;33.00;30.00;;;;;22.59;57.64;100354.88;110030;1251;21479;-37
2023/08/28 07:48:41;;;;;;;;;32.00;32.00;;;;;22.53;57.75;100361.61;110013;1259;19374;-36
2023/08/28 07:51:09;;;;;;;;;32.00;30.00;;;;;22.44;57.74;100364.45;109930;1259;19945;-35
2023/08/28 07:53:36;;;;;;;;;30.00;28.00;;;;;22.41;58.29;100371.23;110101;1253;21511;-36
2023/08/28 07:56:03;;;;;;;;;37.00;31.00;;;;;22.42;58.60;100374.30;110074;1252;20793;-36
2023/08/28 07:58:31;;;;;;;;;38.67;32.33;;;;;22.40;58.70;100368.58;110049;1266;18602;-36
2023/08/28 08:00:59;;;;;;;;;31.50;28.00;;;;;22.62;58.17;100371.33;110060;1266;21964;-38
2023/08/28 08:03:27;;;;;;;;;35.50;31.00;;;;;22.71;58.18;100369.36;110062;1261;20714;-37
2023/08/28 08:05:55;;;;;;;;;34.00;31.50;;;;;22.70;58.37;100368.88;110051;1266;18641;-39
2023/08/28 08:08:22;;;;;;;;;35.00;33.00;;;;;22.70;58.25;100356.65;110083;1251;20153;-38
2023/08/28 08:10:50;;;;;;;;;25.00;24.50;;;;;22.81;57.83;100350.79;110050;1252;22031;-38
2023/08/28 08:13:17;;;;;;;;;31.67;27.67;;;;;23.07;57.38;100347.98;110051;1251;20075;-38
2023/08/28 08:15:44;;;;;;;;;26.50;23.50;;;;;23.29;56.73;100351.25;110016;1251;22242;-38
2023/08/28 08:18:12;;;;;;;;;25.50;23.00;;;;;23.37;56.65;100353.61;110033;1266;19472;-38
2023/08/28 08:20:39;;;;;;;;;25.00;23.00;;;;;23.48;56.61;100361.14;110046;1266;18739;-37
2023/08/28 08:23:06;;;;;;;;;24.67;24.00;;;;;23.61;56.18;100357.73;110030;1253;20305;-37
2023/08/28 08:25:34;;;;;;;;;27.50;25.00;;;;;23.73;56.03;100356.88;110037;1253;20839;-37
2023/08/28 08:28:02;;;;;;;;;32.50;27.50;;;;;23.73;55.99;100356.61;110006;1253;20046;-36
2023/08/28 08:30:29;;;;;;;;;25.50;22.00;;;;;23.82;55.44;100357.11;109962;1253;20195;-37
2023/08/28 08:32:57;;;;;;;;;30.50;28.00;;;;;23.80;55.61;100355.64;110057;1253;20754;-37
2023/08/28 08:35:25;;;;;;;;;27.50;26.00;;;;;23.86;55.21;100359.81;110029;1253;20095;-37
2023/08/28 08:37:53;;;;;;;;;36.00;29.00;;;;;23.92;55.40;100364.10;110026;1251;18678;-37
2023/08/28 08:40:20;;;;;;;;;32.50;25.50;;;;;23.83;55.50;100367.59;110046;1251;22069;-37
2023/08/28 08:42:47;;;;;;;;;33.00;30.00;;;;;23.81;55.89;100367.67;110039;1266;18596;-37
2023/08/28 08:45:15;;;;;;;;;35.50;29.00;;;;;23.90;55.57;100371.19;110043;1266;18880;-37
2023/08/28 08:47:42;;;;;;;;;27.00;22.00;;;;;23.94;55.50;100367.29;110026;1251;20775;-36
2023/08/28 08:50:09;;;;;;;;;30.50;27.00;;;;;24.03;55.43;100368.98;109977;1266;18625;-37
2023/08/28 08:52:38;;;;;;;;;35.00;32.50;;;;;23.99;55.37;100372.41;110037;1253;20140;-37
2023/08/28 08:55:05;;;;;;;;;32.00;28.50;;;;;24.01;55.02;100372.70;110077;1253;20819;-37
2023/08/28 08:57:32;;;;;;;;;29.00;26.50;;;;;24.04;54.97;100369.58;110034;1252;20097;-37
2023/08/28 09:00:00;;;;;;;;;30.50;27.50;;;;;23.98;54.92;100372.75;110040;1259;23622;-38
2023/08/28 09:02:27;;;;;;;;;32.50;27.50;;;;;23.99;54.71;100379.34;110042;1260;22794;-37
2023/08/28 09:04:55;;;;;;;;;37.50;34.50;;;;;24.02;54.77;100381.43;110007;1266;23343;-37
2023/08/28 09:07:22;;;;;;;;;28.50;27.00;;;;;23.98;54.79;100382.48;110018;1251;20187;-37
2023/08/28 09:09:49;;;;;;;;;41.50;36.50;;;;;24.04;54.25;100384.94;110021;1266;20933;-36
2023/08/28 09:12:17;;;;;;;;;32.50;30.50;;;;;24.14;54.16;100387.82;110008;1266;18654;-37
2023/08/28 09:14:44;;;;;;;;;45.00;36.00;;;;;24.19;54.01;100390.54;110017;1266;20151;-37
2023/08/28 09:17:11;;;;;;;;;39.00;35.00;;;;;24.19;54.12;100387.48;110031;1251;21759;-37
2023/08/28 09:19:39;;;;;;;;;40.00;36.00;;;;;24.21;54.21;100393.23;110285;1248;20121;-36
2023/08/28 09:22:06;;;;;;;;;36.00;34.00;;;;;24.23;53.71;100395.54;110270;1262;18754;-37
2023/08/28 09:24:34;;;;;;;;;35.50;34.00;;;;;24.23;53.79;100397.56;110278;1248;20582;-36
2023/08/28 09:27:02;;;;;;;;;38.50;33.50;;;;;24.22;54.03;100397.37;110253;1262;18792;-36
2023/08/28 09:29:30;;;;;;;;;33.00;31.50;;;;;24.27;54.05;100399.55;110248;1262;18786;-34
2023/08/28 09:31:57;;;;;;;;;37.50;32.00;;;;;24.28;53.79;100398.60;110266;1248;21803;-36
2023/08/28 09:34:24;;;;;;;;;31.00;27.00;;;;;24.20;53.98;100402.28;110307;1262;20265;-37
2023/08/28 09:36:51;;;;;;;;;41.50;33.00;;;;;24.18;54.10;100408.71;110294;1247;20162;-36
2023/08/28 09:39:19;;;;;;;;;;;;;;;24.19;54.30;100410.94;110258;1262;21920;-36
2023/08/28 09:41:46;;;;;;;;;33.00;31.00;;;;;24.16;54.20;100405.36;110274;1246;18628;-36
2023/08/28 09:44:13;;;;;;;;;45.33;40.00;;;;;24.16;54.56;100405.91;110286;1262;22007;-36
2023/08/28 09:46:41;;;;;;;;;40.00;37.00;;;;;23.97;54.76;100406.08;110269;1246;20764;-37
2023/08/28 09:49:08;;;;;;;;;37.00;35.00;;;;;23.72;55.12;100411.86;110288;1262;22092;-37
2023/08/28 09:51:35;;;;;;;;;42.50;38.00;;;;;23.55;55.62;100418.40;110285;1262;18664;-37
2023/08/28 09:54:03;;;;;;;;;38.00;31.00;;;;;23.47;55.43;100417.48;110247;1262;19394;-37
2023/08/28 09:56:30;;;;;;;;;41.00;33.00;;;;;23.42;55.41;100423.78;110236;1247;20046;-37
2023/08/28 09:58:57;;;;;;;;;43.00;39.33;;;;;23.42;55.86;100427.55;110306;1246;21727;-37
2023/08/28 10:01:24;;;;;;;;;38.00;33.00;;;;;23.27;56.62;100424.76;110278;1262;19385;-35
2023/08/28 10:03:52;;;;;;;;;40.00;36.00;;;;;23.30;56.28;100428.38;110275;1262;18600;-35
2023/08/28 10:06:19;;;;;;;;;34.50;30.50;;;;;23.31;55.93;100426.78;110265;1249;23036;-36
2023/08/28 10:08:46;;;;;;;;;40.00;34.00;;;;;23.25;55.61;100426.41;110269;1262;19909;-37
2023/08/28 10:11:14;;;;;;;;;30.50;25.50;;;;;23.23;55.39;100423.27;110287;1262;19975;-37
2023/08/28 10:13:41;;;;;;;;;33.00;29.00;;;;;23.24;55.04;100418.52;110299;1262;20353;-37
2023/08/28 10:16:08;;;;;;;;;32.00;30.00;;;;;23.25;55.52;100415.17;110291;1262;19317;-37
2023/08/28 10:18:36;;;;;;;;;29.00;25.00;;;;;23.12;55.50;100405.55;110288;1246;18817;-37
2023/08/28 10:21:03;;;;;;;;;31.00;28.00;;;;;23.07;55.37;100398.48;110293;1262;18834;-36
2023/08/28 10:23:30;;;;;;;;;32.50;29.00;;;;;23.08;55.09;100390.15;110277;1262;22150;-36
2023/08/28 10:25:58;;;;;;;;;30.50;26.50;;;;;23.08;54.99;100388.57;110294;1246;22091;-35
2023/08/28 10:28:25;;;;;;;;;31.00;29.00;;;;;23.19;54.97;100385.02;110278;1247;22836;-37
2023/08/28 10:30:52;;;;;;;;;32.00;29.00;;;;;23.28;55.07;100380.52;110259;1248;20720;-37
2023/08/28 10:33:20;;;;;;;;;31.50;28.00;;;;;23.32;55.48;100375.71;110255;1247;22233;-37
2023/08/28 10:35:47;;;;;;;;;28.00;27.00;;;;;23.34;55.19;100371.63;110269;1262;18713;-37
2023/08/28 10:38:15;;;;;;;;;32.00;31.00;;;;;23.37;55.15;100357.33;110286;1247;20591;-36
2023/08/28 10:40:42;;;;;;;;;34.00;28.00;;;;;23.37;55.09;100353.77;110251;1247;21254;-38
2023/08/28 10:43:09;;;;;;;;;29.00;26.50;;;;;23.29;55.18;100360.67;110270;1262;19253;-37
2023/08/28 10:45:37;;;;;;;;;25.50;25.00;;;;;23.32;55.15;100366.58;110269;1262;19463;-37
2023/08/28 10:48:05;;;;;;;;;30.00;28.00;;;;;23.30;55.17;100373.66;110308;1248;20050;-37
2023/08/28 10:50:32;;;;;;;;;34.00;29.00;;;;;23.29;55.25;100377.71;110291;1248;21346;-38
2023/08/28 10:53:00;;;;;;;;;25.00;24.00;;;;;23.21;54.89;100374.39;110300;1262;19302;-38
2023/08/28 10:55:27;;;;;;;;;26.50;24.00;;;;;23.13;54.09;100372.52;110238;1249;20011;-37
2023/08/28 10:57:54;;;;;;;;;23.67;22.00;;;;;23.07;54.28;100373.66;110275;1247;20185;-37
2023/08/28 11:00:22;;;;;;;;;25.00;25.00;;;;;23.08;54.25;100374.85;110288;1262;19369;-38
2023/08/28 11:02:50;;;;;;;;;23.50;21.00;;;;;23.04;54.24;100377.37;110271;1248;20010;-37
2023/08/28 11:05:17;;;;;;;;;25.00;21.00;;;;;23.08;54.04;100380.48;110274;1247;18860;-38
2023/08/28 11:07:45;;;;;;;;;24.00;21.00;;;;;23.13;53.89;100377.25;110254;1262;19352;-38
2023/08/28 11:10:12;;;;;;;;;22.00;22.00;;;;;23.04;53.68;100367.92;110271;1246;22319;-38